Time;durP1;ratioP1;P1;durP2;ratioP2;P2;SDS_P1;SDS_P2;PMS_P1;PMS_P2;Temp;Humidity;BMP_temperature;BMP_pressure;BME280_temperature;BME280_humidity;BME280_pressure;Samples;Min_cycle;Max_cycle;Signal;HPM_P1;HPM_P2
2023/10/10 00:02:06;;;;;;;;;18.33;16.00;;;;;;;;5076941;27;45394;-41
2023/10/10 00:04:33;;;;;;;;;17.00;16.00;;;;;;;;5075841;27;45283;-43
2023/10/10 00:06:58;;;;;;;;;18.00;15.67;;;;;;;;5081186;27;45521;-42
2023/10/10 00:09:26;;;;;;;;;15.00;15.00;;;;;;;;5075168;28;46039;-42
2023/10/10 00:11:53;;;;;;;;;14.67;13.00;;;;;;;;5068795;27;45651;-42
2023/10/10 00:14:19;;;;;;;;;18.67;17.00;;;;;;;;5069586;27;45342;-41
2023/10/10 00:16:47;;;;;;;;;16.67;16.67;;;;;;;;5080479;27;45505;-42
2023/10/10 00:19:28;;;;;;;;;14.33;12.00;;;;;;;;5076638;28;46108;-41
2023/10/10 00:21:55;;;;;;;;;21.33;15.67;;;;;;;;5066770;28;45398;-41
2023/10/10 00:24:21;;;;;;;;;17.00;15.33;;;;;;;;5079662;27;45445;-43
2023/10/10 00:26:47;;;;;;;;;18.00;15.00;;;;;;;;5075325;27;45706;-41
2023/10/10 00:29:13;;;;;;;;;15.67;15.67;;;;;;;;5078129;28;46222;-41
2023/10/10 00:31:38;;;;;;;;;16.00;16.00;;;;;;;;5070103;28;45350;-42
2023/10/10 00:34:07;;;;;;;;;17.33;15.00;;;;;;;;5079948;27;45350;-41
2023/10/10 00:36:35;;;;;;;;;13.67;13.67;;;;;;;;5079899;28;45584;-41
2023/10/10 00:39:21;;;;;;;;;21.67;19.00;;;;;;;;5077537;27;46235;-41
2023/10/10 00:44:16;;;;;;;;;24.00;17.00;;;;;;;;5071758;28;45599;-41
2023/10/10 00:46:42;;;;;;;;;18.00;17.00;;;;;;;;5081174;27;45493;-42
2023/10/10 00:49:13;;;;;;;;;16.33;15.33;;;;;;;;5075849;27;46120;-42
2023/10/10 00:51:39;;;;;;;;;18.67;15.00;;;;;;;;5081114;27;45424;-43
2023/10/10 00:54:26;;;;;;;;;15.33;14.33;;;;;;;;5074473;27;45775;-41
2023/10/10 00:56:55;;;;;;;;;18.33;15.67;;;;;;;;5083543;27;46334;-42
2023/10/10 00:59:27;;;;;;;;;13.33;13.33;;;;;;;;5085508;27;46888;-41
2023/10/10 01:01:53;;;;;;;;;15.33;15.33;;;;;;;;5085920;27;45496;-41
2023/10/10 01:04:28;;;;;;;;;15.67;14.33;;;;;;;;5081833;27;45407;-41
2023/10/10 01:06:54;;;;;;;;;15.67;12.00;;;;;;;;5078538;27;46461;-41
2023/10/10 01:09:32;;;;;;;;;13.00;13.00;;;;;;;;5078463;27;46890;-41
2023/10/10 01:11:58;;;;;;;;;14.33;12.00;;;;;;;;5081753;27;45381;-41
2023/10/10 01:14:26;;;;;;;;;19.00;13.00;;;;;;;;5080756;27;45329;-41
2023/10/10 01:16:57;;;;;;;;;13.67;12.67;;;;;;;;5084132;27;45352;-41
2023/10/10 01:19:28;;;;;;;;;13.33;13.33;;;;;;;;5085025;27;46294;-41
2023/10/10 01:21:57;;;;;;;;;14.00;11.33;;;;;;;;5074392;27;45425;-41
2023/10/10 01:24:23;;;;;;;;;19.67;14.00;;;;;;;;5068572;28;45354;-41
2023/10/10 01:26:51;;;;;;;;;16.33;12.00;;;;;;;;5078320;28;46838;-42
2023/10/10 01:29:26;;;;;;;;;14.33;14.33;;;;;;;;5075274;27;46220;-41
2023/10/10 01:31:52;;;;;;;;;16.33;16.00;;;;;;;;5075455;28;45478;-42
2023/10/10 01:36:59;;;;;;;;;17.33;14.33;;;;;;;;5078209;27;46693;-43
2023/10/10 01:39:47;;;;;;;;;17.33;16.67;;;;;;;;5077693;27;46231;-41
2023/10/10 01:42:13;;;;;;;;;17.00;15.00;;;;;;;;5056859;28;45402;-41
2023/10/10 01:44:38;;;;;;;;;18.67;14.67;;;;;;;;5078607;28;45483;-41
2023/10/10 01:47:09;;;;;;;;;17.67;14.67;;;;;;;;5076619;28;45314;-42
2023/10/10 01:49:35;;;;;;;;;13.00;13.00;;;;;;;;5078980;28;46513;-41
2023/10/10 01:52:00;;;;;;;;;15.00;15.00;;;;;;;;5075494;27;45407;-41
2023/10/10 01:54:40;;;;;;;;;13.33;13.33;;;;;;;;5077994;28;45603;-41
2023/10/10 01:57:07;;;;;;;;;16.00;14.33;;;;;;;;5076787;27;45451;-41
2023/10/10 01:59:35;;;;;;;;;20.00;16.33;;;;;;;;5071182;27;45429;-41
2023/10/10 02:02:02;;;;;;;;;17.33;16.00;;;;;;;;5071646;27;45370;-40
2023/10/10 02:04:32;;;;;;;;;14.00;11.00;;;;;;;;5075559;27;45456;-41
2023/10/10 02:07:04;;;;;;;;;14.00;14.00;;;;;;;;5077015;28;45477;-41
2023/10/10 02:09:33;;;;;;;;;16.67;12.67;;;;;;;;5072288;27;46317;-42
2023/10/10 02:12:08;;;;;;;;;13.00;11.67;;;;;;;;5072910;27;45658;-41
2023/10/10 02:14:33;;;;;;;;;13.00;13.00;;;;;;;;5077860;27;45415;-41
2023/10/10 02:17:06;;;;;;;;;14.00;12.67;;;;;;;;5079053;28;45478;-42
2023/10/10 02:19:39;;;;;;;;;13.67;12.33;;;;;;;;5070014;28;46237;-41
2023/10/10 02:22:22;;;;;;;;;17.00;14.00;;;;;;;;5078042;27;45306;-41
2023/10/10 02:25:08;;;;;;;;;18.67;14.00;;;;;;;;5076198;28;45501;-42
2023/10/10 02:27:34;;;;;;;;;17.67;12.33;;;;;;;;5078230;27;45273;-42
2023/10/10 02:30:04;;;;;;;;;13.67;12.00;;;;;;;;5078007;27;45340;-42
2023/10/10 02:32:29;;;;;;;;;18.33;14.00;;;;;;;;5080378;27;45571;-42
2023/10/10 02:35:16;;;;;;;;;14.67;10.67;;;;;;;;5073240;27;45611;-42
2023/10/10 02:37:41;;;;;;;;;16.33;13.33;;;;;;;;5081813;28;45496;-42
2023/10/10 02:40:16;;;;;;;;;14.67;13.00;;;;;;;;5076580;27;48280;-42
2023/10/10 02:42:50;;;;;;;;;13.00;13.00;;;;;;;;5078779;27;45464;-42
2023/10/10 02:45:15;;;;;;;;;18.67;13.33;;;;;;;;5080494;27;45435;-43
2023/10/10 02:47:46;;;;;;;;;13.00;12.00;;;;;;;;5082113;27;45413;-41
2023/10/10 02:50:38;;;;;;;;;15.33;14.33;;;;;;;;5073158;27;46232;-41
2023/10/10 02:53:00;;;;;;;;;15.33;15.00;;;;;;;;5070530;27;45383;-42
2023/10/10 02:55:33;;;;;;;;;17.67;14.33;;;;;;;;5078062;28;45582;-42
2023/10/10 02:57:59;;;;;;;;;15.33;14.00;;;;;;;;5082104;27;45476;-42
2023/10/10 03:00:28;;;;;;;;;14.67;14.00;;;;;;;;5081407;28;46187;-42
2023/10/10 03:02:54;;;;;;;;;12.00;12.00;;;;;;;;5081941;27;45362;-41
2023/10/10 03:05:39;;;;;;;;;14.00;14.00;;;;;;;;5082343;28;45369;-42
2023/10/10 03:08:13;;;;;;;;;20.33;15.67;;;;;;;;5080934;28;45347;-42
2023/10/10 03:10:41;;;;;;;;;14.67;14.00;;;;;;;;5077054;27;45471;-42
2023/10/10 03:13:57;;;;;;;;;14.33;12.00;;;;;;;;5076673;27;45452;-43
2023/10/10 03:15:55;;;;;;;;;11.00;10.33;;;;;;;;5070168;28;45507;-42
2023/10/10 03:18:28;;;;;;;;;15.00;15.00;;;;;;;;5075162;28;45482;-41
2023/10/10 03:21:18;;;;;;;;;16.00;12.33;;;;;;;;5075554;28;46957;-42
2023/10/10 03:24:36;;;;;;;;;16.33;13.67;;;;;;;;5080100;28;45319;-43
2023/10/10 03:29:20;;;;;;;;;14.00;13.00;;;;;;;;5069345;28;45333;-41
2023/10/10 03:32:09;;;;;;;;;12.67;12.00;;;;;;;;5079323;28;45548;-41
2023/10/10 03:34:44;;;;;;;;;16.67;15.00;;;;;;;;5075758;28;45588;-42
2023/10/10 03:37:30;;;;;;;;;16.00;13.00;;;;;;;;5081500;28;45688;-42
2023/10/10 03:40:05;;;;;;;;;15.00;13.00;;;;;;;;5070540;28;45355;-41
2023/10/10 05:23:50;;;;;;;;;16.67;16.00;;;;;;;;5074143;27;46468;-41
2023/10/10 05:26:19;;;;;;;;;20.33;16.00;;;;;;;;5060772;28;45445;-41
2023/10/10 05:28:45;;;;;;;;;16.67;15.33;;;;;;;;5066642;27;45512;-41
2023/10/10 05:31:12;;;;;;;;;18.67;15.67;;;;;;;;5075774;27;46988;-42
2023/10/10 05:33:37;;;;;;;;;16.00;16.00;;;;;;;;5077985;27;45462;-41
2023/10/10 05:36:08;;;;;;;;;17.33;17.00;;;;;;;;5077546;27;46622;-42
2023/10/10 05:38:39;;;;;;;;;19.00;17.33;;;;;;;;5076564;28;45447;-41
2023/10/10 05:41:06;;;;;;;;;19.67;15.67;;;;;;;;5077933;27;46331;-42
2023/10/10 05:43:34;;;;;;;;;16.33;15.67;;;;;;;;5068825;27;45495;-41
2023/10/10 05:46:00;;;;;;;;;12.33;12.33;;;;;;;;5074286;27;45517;-42
2023/10/10 05:48:26;;;;;;;;;13.33;13.33;;;;;;;;5077958;27;45421;-42
2023/10/10 05:50:53;;;;;;;;;22.00;17.00;;;;;;;;5077803;28;46937;-41
2023/10/10 05:53:20;;;;;;;;;15.00;15.00;;;;;;;;5077737;28;45412;-41
2023/10/10 05:55:50;;;;;;;;;15.67;15.00;;;;;;;;5074937;27;45352;-41
2023/10/10 05:58:17;;;;;;;;;19.67;17.33;;;;;;;;5078137;27;45456;-41
2023/10/10 06:00:44;;;;;;;;;18.67;16.67;;;;;;;;5078085;27;45235;-42
2023/10/10 06:03:12;;;;;;;;;17.33;17.33;;;;;;;;5073131;27;45278;-42
2023/10/10 06:05:40;;;;;;;;;22.67;17.67;;;;;;;;5075559;27;45499;-41
2023/10/10 06:08:05;;;;;;;;;19.33;17.00;;;;;;;;5078176;27;45168;-42
2023/10/10 06:10:34;;;;;;;;;23.00;16.67;;;;;;;;5073744;28;46149;-42
2023/10/10 06:13:11;;;;;;;;;20.33;17.00;;;;;;;;5079337;27;46995;-41
2023/10/10 06:15:36;;;;;;;;;26.67;19.67;;;;;;;;5077294;28;45454;-41
2023/10/10 06:18:08;;;;;;;;;17.67;17.00;;;;;;;;5071869;27;45271;-41
2023/10/10 06:20:40;;;;;;;;;20.33;18.00;;;;;;;;5075222;28;45406;-41
2023/10/10 06:23:06;;;;;;;;;21.67;16.67;;;;;;;;5078294;27;45376;-42
2023/10/10 06:25:32;;;;;;;;;22.00;19.00;;;;;;;;5077121;27;45784;-45
2023/10/10 06:28:00;;;;;;;;;22.67;18.00;;;;;;;;5075575;28;45441;-41
2023/10/10 06:30:26;;;;;;;;;20.33;17.67;;;;;;;;5066971;27;46308;-41
2023/10/10 06:32:51;;;;;;;;;21.67;17.00;;;;;;;;5073270;28;45338;-41
2023/10/10 06:37:45;;;;;;;;;23.67;22.00;;;;;;;;5075747;27;45489;-41
2023/10/10 06:40:10;;;;;;;;;22.67;19.67;;;;;;;;5062802;27;45989;-41
2023/10/10 06:42:36;;;;;;;;;21.33;21.33;;;;;;;;5071781;28;45295;-41
2023/10/10 06:45:11;;;;;;;;;19.33;18.67;;;;;;;;5076536;27;45373;-41
2023/10/10 06:47:39;;;;;;;;;27.00;21.33;;;;;;;;5076459;28;45617;-41
2023/10/10 06:50:11;;;;;;;;;23.67;22.00;;;;;;;;5077016;28;46334;-42
2023/10/10 06:52:37;;;;;;;;;25.67;19.67;;;;;;;;5076018;28;45767;-41
2023/10/10 06:55:10;;;;;;;;;21.67;19.00;;;;;;;;5077251;27;45496;-41
2023/10/10 06:57:36;;;;;;;;;25.33;22.00;;;;;;;;5077654;27;45509;-41
2023/10/10 07:02:47;;;;;;;;;22.33;17.33;;;;;;;;5066382;28;45345;-41
2023/10/10 07:05:15;;;;;;;;;23.00;21.00;;;;;;;;5077896;27;45353;-41
2023/10/10 07:07:40;;;;;;;;;22.67;21.33;;;;;;;;5078255;28;45355;-41
2023/10/10 07:10:09;;;;;;;;;21.67;21.00;;;;;;;;5072083;27;45522;-41
2023/10/10 07:12:35;;;;;;;;;25.00;21.33;;;;;;;;5075168;27;45397;-41
2023/10/10 07:15:01;;;;;;;;;27.33;23.33;;;;;;;;5072573;27;45502;-40
2023/10/10 07:17:29;;;;;;;;;35.67;25.00;;;;;;;;5075938;27;46011;-40
2023/10/10 07:22:25;;;;;;;;;21.00;19.33;;;;;;;;5081078;27;45346;-40
2023/10/10 07:24:55;;;;;;;;;27.33;24.00;;;;;;;;5083178;27;45492;-40
2023/10/10 07:27:24;;;;;;;;;24.33;21.00;;;;;;;;5081992;27;45287;-40
2023/10/10 07:32:18;;;;;;;;;33.00;25.67;;;;;;;;5080501;27;45345;-40
2023/10/10 07:34:49;;;;;;;;;29.00;27.00;;;;;;;;5078489;27;45395;-40
2023/10/10 07:37:15;;;;;;;;;30.33;24.33;;;;;;;;5083070;27;45337;-39
2023/10/10 07:39:55;;;;;;;;;27.67;24.67;;;;;;;;5081976;27;46946;-39
2023/10/10 07:42:27;;;;;;;;;25.67;24.67;;;;;;;;5088486;27;45527;-40
2023/10/10 07:45:02;;;;;;;;;29.67;27.00;;;;;;;;5082901;27;45187;-40
2023/10/10 07:47:29;;;;;;;;;28.67;26.00;;;;;;;;5090187;27;45482;-40
2023/10/10 07:50:00;;;;;;;;;34.00;29.00;;;;;;;;5087401;27;47207;-40
2023/10/10 07:52:25;;;;;;;;;33.67;30.67;;;;;;;;5081900;27;45284;-40
2023/10/10 07:54:51;;;;;;;;;35.33;31.67;;;;;;;;5076048;27;45474;-40
2023/10/10 07:57:17;;;;;;;;;37.33;30.33;;;;;;;;5087131;27;45309;-40
2023/10/10 07:59:46;;;;;;;;;33.00;29.67;;;;;;;;5081758;27;46052;-40
2023/10/10 08:02:24;;;;;;;;;43.33;33.67;;;;;;;;5085199;27;45370;-40
2023/10/10 08:04:50;;;;;;;;;35.67;31.33;;;;;;;;5080048;27;45742;-40
2023/10/10 08:07:19;;;;;;;;;26.67;26.67;;;;;;;;5087568;27;45364;-40
2023/10/10 08:09:48;;;;;;;;;45.00;33.33;;;;;;;;5086134;27;46198;-40
2023/10/10 08:12:14;;;;;;;;;52.67;37.00;;;;;;;;5082037;27;45488;-40
2023/10/10 08:14:39;;;;;;;;;41.00;35.00;;;;;;;;5083638;27;45405;-40
2023/10/10 08:17:18;;;;;;;;;44.67;35.67;;;;;;;;5090419;27;45504;-40
2023/10/10 08:19:45;;;;;;;;;41.00;33.67;;;;;;;;5074326;27;46295;-40
2023/10/10 08:22:15;;;;;;;;;43.67;35.67;;;;;;;;5061819;27;45389;-40
2023/10/10 08:24:43;;;;;;;;;42.67;31.00;;;;;;;;5082999;27;45492;-40
2023/10/10 08:27:10;;;;;;;;;28.67;23.33;;;;;;;;5080763;27;45445;-40
2023/10/10 08:29:35;;;;;;;;;37.33;31.67;;;;;;;;5080345;27;46198;-41
2023/10/10 08:32:00;;;;;;;;;33.67;30.67;;;;;;;;5080057;27;45413;-40
2023/10/10 08:34:25;;;;;;;;;33.67;30.33;;;;;;;;5078791;27;45520;-41
2023/10/10 08:36:51;;;;;;;;;36.67;33.33;;;;;;;;5082512;27;45420;-40
2023/10/10 08:41:42;;;;;;;;;36.33;32.00;;;;;;;;5081270;27;45458;-40
2023/10/10 08:44:09;;;;;;;;;39.67;33.67;;;;;;;;5080379;27;45461;-40
2023/10/10 08:46:40;;;;;;;;;38.00;33.00;;;;;;;;5082318;27;45504;-40
2023/10/10 08:49:06;;;;;;;;;39.00;32.33;;;;;;;;5079628;27;46283;-40
2023/10/10 08:51:33;;;;;;;;;41.33;34.33;;;;;;;;5079764;27;45689;-40
2023/10/10 08:54:09;;;;;;;;;39.33;33.00;;;;;;;;5079439;27;45321;-40
2023/10/10 08:56:37;;;;;;;;;42.67;34.67;;;;;;;;5080896;27;45335;-40
2023/10/10 08:59:03;;;;;;;;;45.67;34.67;;;;;;;;5081075;27;46998;-40
2023/10/10 09:01:33;;;;;;;;;41.33;34.33;;;;;;;;5081274;27;45484;-41
2023/10/10 09:03:58;;;;;;;;;44.67;35.33;;;;;;;;5079646;27;45413;-40
2023/10/10 09:06:32;;;;;;;;;44.67;35.33;;;;;;;;5081939;27;45322;-40
2023/10/10 09:09:00;;;;;;;;;41.67;33.33;;;;;;;;5081576;27;45452;-40
2023/10/10 09:11:25;;;;;;;;;40.67;35.33;;;;;;;;5081052;27;45440;-40
2023/10/10 09:13:53;;;;;;;;;15.00;9.67;;;;;;;;5078561;27;45294;-40
2023/10/10 09:16:39;;;;;;;;;44.00;35.67;;;;;;;;5079813;27;45653;-40
2023/10/10 09:19:08;;;;;;;;;32.33;30.67;;;;;;;;5076117;27;46324;-40
2023/10/10 09:21:44;;;;;;;;;48.33;37.33;;;;;;;;5085380;27;45371;-40
2023/10/10 09:24:26;;;;;;;;;41.00;33.67;;;;;;;;5071635;27;45887;-40
2023/10/10 09:26:52;;;;;;;;;37.33;32.00;;;;;;;;5080321;27;45374;-40
2023/10/10 09:29:28;;;;;;;;;42.00;33.00;;;;;;;;5077370;27;46840;-40
2023/10/10 09:31:59;;;;;;;;;35.33;32.00;;;;;;;;5080191;27;45378;-40
2023/10/10 09:34:28;;;;;;;;;46.67;37.33;;;;;;;;5081230;27;45333;-40
2023/10/10 09:36:57;;;;;;;;;45.67;34.33;;;;;;;;5080379;27;45342;-40
2023/10/10 09:39:36;;;;;;;;;36.67;30.67;;;;;;;;5079205;27;47086;-40
2023/10/10 09:42:23;;;;;;;;;38.00;34.33;;;;;;;;5078356;27;45549;-40
2023/10/10 09:47:43;;;;;;;;;17.33;11.67;;;;;;;;5057428;28;45493;-40
2023/10/10 09:52:59;;;;;;;;;29.33;25.67;;;;;;;;5078203;27;45202;-41
2023/10/10 10:00:45;;;;;;;;;28.33;24.67;;;;;;;;5079593;27;46539;-41
2023/10/10 10:09:14;;;;;;;;;21.33;21.00;;;;;;;;5078171;27;45243;-41
2023/10/10 10:11:45;;;;;;;;;23.33;19.00;;;;;;;;5078322;27;46097;-41
2023/10/10 10:14:36;;;;;;;;;21.00;18.00;;;;;;;;5067602;27;45452;-43
2023/10/10 10:17:14;;;;;;;;;14.33;14.00;;;;;;;;5079169;27;45352;-41
2023/10/10 10:19:45;;;;;;;;;15.67;13.33;;;;;;;;5078477;27;45343;-42
2023/10/10 10:22:17;;;;;;;;;11.00;11.00;;;;;;;;5074336;27;45415;-41
2023/10/10 10:24:48;;;;;;;;;13.33;10.67;;;;;;;;5076990;27;45539;-42
2023/10/10 10:27:25;;;;;;;;;16.33;13.00;;;;;;;;5080431;27;45418;-42
2023/10/10 10:30:08;;;;;;;;;10.50;5.75;;;;;;;;5077955;27;45570;-42
2023/10/10 10:32:39;;;;;;;;;12.00;11.33;;;;;;;;5080121;27;45425;-42
2023/10/10 10:35:12;;;;;;;;;9.00;8.00;;;;;;;;5080191;27;45398;-41
2023/10/10 10:37:39;;;;;;;;;12.00;10.33;;;;;;;;5082370;27;45497;-41
2023/10/10 10:42:46;;;;;;;;;11.50;9.75;;;;;;;;5081969;27;45472;-43
2023/10/10 10:45:26;;;;;;;;;10.75;10.00;;;;;;;;5079621;27;45345;-41
2023/10/10 10:47:59;;;;;;;;;11.25;9.25;;;;;;;;5081611;27;45357;-44
2023/10/10 10:50:40;;;;;;;;;8.50;8.50;;;;;;;;5081702;27;45412;-42
2023/10/10 10:53:08;;;;;;;;;8.25;7.00;;;;;;;;5073560;27;46350;-41
2023/10/10 10:55:39;;;;;;;;;9.67;9.67;;;;;;;;5084231;27;45334;-42
2023/10/10 10:58:26;;;;;;;;;8.50;7.50;;;;;;;;5083772;27;45387;-42
2023/10/10 11:03:23;;;;;;;;;9.50;7.75;;;;;;;;5084701;27;46171;-43
2023/10/10 11:05:53;;;;;;;;;9.25;8.25;;;;;;;;5082795;27;45299;-43
2023/10/10 11:08:45;;;;;;;;;16.50;9.75;;;;;;;;5083905;27;45385;-45
2023/10/10 11:11:23;;;;;;;;;8.50;8.50;;;;;;;;5082477;27;45512;-45
2023/10/10 11:13:49;;;;;;;;;7.75;7.75;;;;;;;;5082397;27;47635;-45
2023/10/10 11:16:15;;;;;;;;;14.00;12.00;;;;;;;;5083434;27;45579;-43
2023/10/10 11:18:41;;;;;;;;;8.50;7.50;;;;;;;;5078418;27;45417;-43
2023/10/10 11:21:11;;;;;;;;;8.25;7.75;;;;;;;;5081890;27;45417;-42
2023/10/10 11:23:41;;;;;;;;;7.75;6.50;;;;;;;;5072119;27;46184;-42
2023/10/10 11:26:08;;;;;;;;;11.25;9.25;;;;;;;;5083531;27;45297;-44
2023/10/10 11:28:47;;;;;;;;;19.33;14.00;;;;;;;;5084113;27;45454;-44
2023/10/10 11:31:14;;;;;;;;;15.75;14.25;;;;;;;;5081550;27;45405;-44
2023/10/10 11:33:48;;;;;;;;;24.67;24.67;;;;;;;;5083539;27;46359;-44
2023/10/10 11:36:29;;;;;;;;;14.75;14.00;;;;;;;;5085300;27;45276;-44
2023/10/10 11:39:15;;;;;;;;;11.75;8.50;;;;;;;;5083462;27;45307;-47
2023/10/10 11:41:40;;;;;;;;;11.00;10.00;;;;;;;;5071696;27;45592;-44
2023/10/10 11:44:05;;;;;;;;;8.25;7.75;;;;;;;;5082522;27;45567;-44
2023/10/10 11:46:31;;;;;;;;;7.75;7.50;;;;;;;;5082782;27;45378;-44
2023/10/10 11:48:56;;;;;;;;;7.25;7.00;;;;;;;;5084647;27;45526;-44
2023/10/10 11:51:36;;;;;;;;;6.00;5.25;;;;;;;;5082622;27;45408;-45
2023/10/10 11:54:02;;;;;;;;;6.75;5.75;;;;;;;;5082811;27;45461;-43
2023/10/10 11:56:31;;;;;;;;;10.75;7.50;;;;;;;;5081927;27;45227;-46
2023/10/10 11:58:56;;;;;;;;;8.00;7.75;;;;;;;;5083973;27;45425;-47
2023/10/10 12:01:47;;;;;;;;;7.50;7.50;;;;;;;;5081260;27;45425;-44
2023/10/10 12:04:20;;;;;;;;;9.50;8.00;;;;;;;;5081854;27;45690;-46
2023/10/10 12:06:46;;;;;;;;;9.00;8.50;;;;;;;;5082968;27;45302;-43
2023/10/10 12:09:14;;;;;;;;;6.00;6.00;;;;;;;;5081634;27;45512;-43
2023/10/10 12:11:39;;;;;;;;;5.50;5.00;;;;;;;;5080549;27;45482;-43
2023/10/10 12:14:10;;;;;;;;;8.00;6.25;;;;;;;;5081029;27;46188;-43
2023/10/10 12:16:35;;;;;;;;;8.50;7.75;;;;;;;;5081367;27;45339;-44
2023/10/10 12:19:00;;;;;;;;;4.75;4.75;;;;;;;;5080669;27;45314;-43
2023/10/10 12:21:25;;;;;;;;;7.50;7.50;;;;;;;;5080869;27;45314;-44
2023/10/10 12:23:55;;;;;;;;;7.67;6.67;;;;;;;;5070666;27;45299;-43
2023/10/10 12:26:22;;;;;;;;;7.00;7.00;;;;;;;;5070576;27;45392;-44
2023/10/10 12:28:48;;;;;;;;;7.67;7.67;;;;;;;;5061689;27;45470;-44
2023/10/10 12:31:16;;;;;;;;;9.00;8.25;;;;;;;;5076421;27;45550;-43
2023/10/10 12:33:48;;;;;;;;;7.75;6.00;;;;;;;;5081729;27;46052;-43
2023/10/10 12:36:14;;;;;;;;;8.75;4.75;;;;;;;;5081005;27;45508;-44
2023/10/10 12:38:40;;;;;;;;;7.25;6.75;;;;;;;;5080611;27;45310;-43
2023/10/10 12:41:05;;;;;;;;;6.75;4.00;;;;;;;;5082831;27;45467;-43
2023/10/10 12:43:30;;;;;;;;;6.50;6.50;;;;;;;;5081566;27;45387;-43
2023/10/10 12:45:56;;;;;;;;;5.75;4.75;;;;;;;;5081824;27;45322;-47
2023/10/10 12:48:21;;;;;;;;;7.50;6.25;;;;;;;;5081237;27;45700;-43
2023/10/10 12:50:47;;;;;;;;;8.25;6.25;;;;;;;;5082730;27;45213;-43
2023/10/10 12:53:15;;;;;;;;;8.50;7.25;;;;;;;;5080580;27;45501;-45
2023/10/10 12:55:51;;;;;;;;;7.50;7.50;;;;;;;;5081819;27;45610;-43
2023/10/10 12:58:20;;;;;;;;;8.00;7.50;;;;;;;;5080032;27;45325;-44
2023/10/10 13:00:52;;;;;;;;;7.00;7.00;;;;;;;;5082574;27;45346;-44
2023/10/10 13:03:27;;;;;;;;;6.67;6.67;;;;;;;;5079984;27;46638;-42
2023/10/10 13:05:58;;;;;;;;;6.00;6.00;;;;;;;;5080441;27;45324;-42
2023/10/10 13:08:24;;;;;;;;;6.00;6.00;;;;;;;;5080168;27;45226;-42
2023/10/10 13:10:54;;;;;;;;;9.25;8.00;;;;;;;;5079795;27;45653;-44
2023/10/10 13:13:26;;;;;;;;;5.00;5.00;;;;;;;;5079228;27;45898;-43
2023/10/10 13:16:07;;;;;;;;;8.25;5.75;;;;;;;;5080025;27;45706;-42
2023/10/10 13:18:32;;;;;;;;;4.75;4.25;;;;;;;;5070843;27;45341;-42
2023/10/10 13:21:00;;;;;;;;;6.75;6.25;;;;;;;;5079533;27;45579;-42
2023/10/10 13:23:25;;;;;;;;;6.00;4.75;;;;;;;;5068794;27;46986;-42
2023/10/10 13:25:51;;;;;;;;;6.50;5.50;;;;;;;;5081088;27;45407;-42
2023/10/10 13:28:20;;;;;;;;;3.50;3.50;;;;;;;;5081538;27;45365;-42
2023/10/10 13:30:48;;;;;;;;;5.00;5.00;;;;;;;;5077794;27;45520;-42
2023/10/10 13:33:14;;;;;;;;;6.00;5.25;;;;;;;;5081387;27;45390;-42
2023/10/10 13:35:39;;;;;;;;;5.00;5.00;;;;;;;;5080815;27;45707;-42
2023/10/10 13:38:05;;;;;;;;;6.75;5.00;;;;;;;;5083134;27;45317;-42
2023/10/10 13:40:37;;;;;;;;;9.00;5.75;;;;;;;;5079673;27;45567;-42
2023/10/10 13:43:06;;;;;;;;;4.75;4.00;;;;;;;;5081236;27;46272;-44
2023/10/10 13:45:33;;;;;;;;;6.50;6.00;;;;;;;;5080166;27;45317;-42
2023/10/10 13:48:00;;;;;;;;;7.25;7.25;;;;;;;;5080143;27;45326;-42
2023/10/10 13:50:31;;;;;;;;;7.00;5.50;;;;;;;;5081176;27;45453;-42
2023/10/10 13:52:56;;;;;;;;;5.75;5.75;;;;;;;;5080029;27;45624;-41
2023/10/10 13:55:21;;;;;;;;;6.00;6.00;;;;;;;;5081303;27;45377;-42
2023/10/10 13:57:47;;;;;;;;;8.75;8.75;;;;;;;;5079962;27;45349;-43
2023/10/10 14:00:29;;;;;;;;;8.25;6.00;;;;;;;;5080630;27;45242;-42
2023/10/10 14:02:59;;;;;;;;;10.50;7.00;;;;;;;;5079135;27;46629;-42
2023/10/10 14:05:28;;;;;;;;;5.75;5.75;;;;;;;;5079069;27;45402;-45
2023/10/10 14:07:54;;;;;;;;;8.00;6.50;;;;;;;;5072173;27;45326;-42
2023/10/10 14:10:20;;;;;;;;;6.75;6.75;;;;;;;;5079141;27;45410;-43
2023/10/10 14:12:46;;;;;;;;;5.25;5.25;;;;;;;;5078747;27;46128;-42
2023/10/10 14:15:11;;;;;;;;;8.00;8.00;;;;;;;;5079906;27;45349;-42
2023/10/10 14:17:36;;;;;;;;;8.25;6.25;;;;;;;;5079269;27;45307;-42
2023/10/10 14:20:04;;;;;;;;;9.00;7.25;;;;;;;;5080011;27;45496;-43
2023/10/10 14:22:38;;;;;;;;;10.00;10.00;;;;;;;;5069161;27;45355;-42
2023/10/10 14:25:04;;;;;;;;;6.00;6.00;;;;;;;;5079032;27;45432;-41
2023/10/10 14:27:29;;;;;;;;;7.75;7.75;;;;;;;;5078813;27;45459;-43
2023/10/10 14:29:54;;;;;;;;;5.75;5.75;;;;;;;;5078479;27;45722;-42
2023/10/10 14:32:19;;;;;;;;;5.00;5.00;;;;;;;;5080038;27;46484;-42
2023/10/10 14:34:45;;;;;;;;;5.75;4.00;;;;;;;;5067449;27;45435;-43
2023/10/10 14:37:11;;;;;;;;;8.00;6.25;;;;;;;;5072042;27;45216;-42
2023/10/10 14:39:44;;;;;;;;;5.00;3.75;;;;;;;;5081444;27;45213;-43
2023/10/10 14:42:09;;;;;;;;;6.00;5.67;;;;;;;;5080227;27;46184;-41
2023/10/10 14:44:40;;;;;;;;;3.50;1.50;;;;;;;;5080899;27;45375;-42
2023/10/10 14:47:07;;;;;;;;;6.25;4.75;;;;;;;;5078901;27;45392;-43
2023/10/10 14:49:34;;;;;;;;;3.75;3.75;;;;;;;;5081698;27;45322;-42
2023/10/10 14:52:03;;;;;;;;;11.67;11.67;;;;;;;;5080950;27;46276;-42
2023/10/10 14:54:29;;;;;;;;;12.00;6.50;;;;;;;;5078778;27;45243;-41
2023/10/10 14:56:54;;;;;;;;;6.25;6.25;;;;;;;;5077339;27;45519;-42
2023/10/10 14:59:24;;;;;;;;;6.25;3.75;;;;;;;;5076663;28;45342;-42
2023/10/10 15:01:50;;;;;;;;;5.25;5.25;;;;;;;;5069281;28;46144;-42
2023/10/10 15:04:19;;;;;;;;;5.00;5.00;;;;;;;;5077783;28;45298;-42
2023/10/10 15:06:46;;;;;;;;;7.00;5.25;;;;;;;;5077855;27;45381;-41
2023/10/10 15:09:15;;;;;;;;;5.00;5.00;;;;;;;;5077411;27;45479;-42
2023/10/10 15:11:41;;;;;;;;;4.50;4.50;;;;;;;;5077613;27;46320;-43
2023/10/10 15:14:09;;;;;;;;;3.50;3.50;;;;;;;;5074951;28;45521;-42
2023/10/10 15:16:35;;;;;;;;;6.25;6.25;;;;;;;;5076712;28;45398;-42
2023/10/10 15:19:02;;;;;;;;;5.75;5.75;;;;;;;;5072537;28;45239;-42
2023/10/10 15:21:32;;;;;;;;;6.33;6.33;;;;;;;;5077943;28;45909;-42
2023/10/10 15:23:58;;;;;;;;;6.00;5.00;;;;;;;;5078876;27;45353;-41
2023/10/10 15:26:24;;;;;;;;;6.67;6.67;;;;;;;;5077978;28;45992;-42
2023/10/10 15:28:52;;;;;;;;;8.00;7.00;;;;;;;;5077713;28;45469;-42
2023/10/10 15:31:19;;;;;;;;;7.00;5.25;;;;;;;;5072103;28;47604;-43
2023/10/10 15:33:44;;;;;;;;;7.25;6.25;;;;;;;;5069420;28;45353;-43
2023/10/10 15:36:11;;;;;;;;;6.00;6.00;;;;;;;;5059063;28;45277;-41
2023/10/10 15:38:38;;;;;;;;;4.50;4.50;;;;;;;;5071426;28;45517;-42
2023/10/10 15:41:14;;;;;;;;;5.25;5.25;;;;;;;;5080250;28;47054;-41
2023/10/10 15:43:46;;;;;;;;;6.75;6.75;;;;;;;;5081717;27;45398;-41
2023/10/10 15:46:12;;;;;;;;;6.75;6.00;;;;;;;;5079979;28;45332;-41
2023/10/10 15:48:42;;;;;;;;;4.00;4.00;;;;;;;;5080496;28;45423;-41
2023/10/10 15:51:08;;;;;;;;;6.00;6.00;;;;;;;;5081112;28;46891;-43
2023/10/10 15:53:38;;;;;;;;;7.00;5.25;;;;;;;;5080983;27;45362;-42
2023/10/10 15:56:16;;;;;;;;;6.50;6.50;;;;;;;;5081223;28;45469;-42
2023/10/10 15:58:49;;;;;;;;;7.00;7.00;;;;;;;;5080857;28;45272;-41
2023/10/10 16:01:27;;;;;;;;;6.75;5.50;;;;;;;;5078679;28;45421;-41
2023/10/10 16:03:52;;;;;;;;;9.75;6.50;;;;;;;;5079600;28;45437;-42
2023/10/10 16:06:18;;;;;;;;;9.20;7.00;;;;;;;;5080653;27;45341;-41
2023/10/10 16:08:47;;;;;;;;;8.25;7.00;;;;;;;;5079496;28;45432;-42
2023/10/10 16:11:13;;;;;;;;;9.25;8.50;;;;;;;;5077788;28;46335;-42
2023/10/10 16:13:38;;;;;;;;;7.67;7.00;;;;;;;;5076258;28;45454;-43
2023/10/10 16:16:06;;;;;;;;;9.67;7.00;;;;;;;;5079003;28;45371;-43
2023/10/10 16:18:33;;;;;;;;;6.00;6.00;;;;;;;;5076916;28;45348;-42
2023/10/10 16:20:58;;;;;;;;;8.67;8.33;;;;;;;;5068399;27;46473;-41
2023/10/10 16:23:24;;;;;;;;;10.67;9.67;;;;;;;;5080282;28;45353;-44
2023/10/10 16:25:50;;;;;;;;;10.33;9.67;;;;;;;;5077797;27;45491;-43
2023/10/10 16:28:17;;;;;;;;;6.00;6.00;;;;;;;;5075484;27;45749;-44
2023/10/10 16:30:42;;;;;;;;;8.33;7.00;;;;;;;;5079496;28;46925;-44
2023/10/10 16:33:10;;;;;;;;;6.67;6.00;;;;;;;;5071466;28;45379;-42
2023/10/10 16:35:38;;;;;;;;;8.00;6.00;;;;;;;;5079907;27;45126;-43
2023/10/10 16:38:03;;;;;;;;;8.00;7.00;;;;;;;;5078191;27;45468;-41
2023/10/10 16:40:30;;;;;;;;;7.25;6.50;;;;;;;;5077914;27;45484;-42
2023/10/10 16:42:56;;;;;;;;;12.33;11.67;;;;;;;;5079003;27;45282;-43
2023/10/10 16:45:22;;;;;;;;;10.00;9.00;;;;;;;;5072680;27;45697;-41
2023/10/10 16:47:47;;;;;;;;;13.00;10.33;;;;;;;;5071566;28;45272;-41
2023/10/10 16:50:13;;;;;;;;;11.75;11.50;;;;;;;;5067200;28;47094;-42
2023/10/10 16:52:38;;;;;;;;;7.25;7.25;;;;;;;;5072938;27;45220;-40
2023/10/10 16:55:10;;;;;;;;;9.67;9.00;;;;;;;;5070575;27;45791;-41
2023/10/10 16:57:36;;;;;;;;;6.00;6.00;;;;;;;;5067338;27;45255;-42
2023/10/10 17:00:02;;;;;;;;;6.75;6.75;;;;;;;;5082215;27;45975;-43
2023/10/10 17:02:27;;;;;;;;;8.00;7.50;;;;;;;;5069591;28;45481;-44
2023/10/10 17:04:53;;;;;;;;;9.50;8.25;;;;;;;;5078280;27;45454;-41